Terminal Aerodrome Forecast
Issued by NWS

Home | Current Version | Previous Version | Text Only | Print | Product List | Glossary On
Versions: 1 2 3 4 5 6 7 8 9 10 11 12 13 14 15 16 17
000
FTUS44 KLZK 101700
TAFHOT
TAF
KHOT 101736Z 1018/1118 14006KT P6SM VCSH SCT030 BKN100
      TEMPO 1018/1021 5SM SHRA BR OVC025
     FM102100 17007KT P6SM BKN040
      TEMPO 1021/1024 5SM TSRA BR OVC025CB
     FM110100 09004KT P6SM BKN250
     FM111500 17005KT P6SM SCT040=

USA.gov is the U.S. government's official web portal to all federal, state and local government web resources and services.